Time;durP1;ratioP1;P1;durP2;ratioP2;P2;SDS_P1;SDS_P2;PMS_P1;PMS_P2;Temp;Humidity;BMP_temperature;BMP_pressure;BME280_temperature;BME280_humidity;BME280_pressure;Samples;Min_cycle;Max_cycle;Signal;HPM_P1;HPM_P2
2020/12/24 00:01:41;;;;;;;1.23;1.13;;;14.10;75.80;;;;;;4878235;29;20938;-75
2020/12/24 00:04:08;;;;;;;0.83;0.83;;;14.00;75.50;;;;;;4880182;29;20456;-75
2020/12/24 00:06:35;;;;;;;2.20;1.13;;;14.00;75.40;;;;;;4869338;29;20502;-75
2020/12/24 00:09:01;;;;;;;0.80;0.80;;;13.90;73.00;;;;;;4861287;29;20462;-75
2020/12/24 00:11:28;;;;;;;0.83;0.77;;;13.80;72.20;;;;;;4870380;29;20492;-75
2020/12/24 00:13:56;;;;;;;0.67;0.67;;;13.70;70.50;;;;;;4879988;29;20464;-74
2020/12/24 00:16:22;;;;;;;0.70;0.70;;;13.60;68.50;;;;;;4870275;29;20650;-74
2020/12/24 00:18:49;;;;;;;1.23;1.10;;;13.60;68.20;;;;;;4862217;29;20477;-75
2020/12/24 00:21:15;;;;;;;0.80;0.80;;;13.70;68.70;;;;;;4863699;29;20468;-75
2020/12/24 00:23:42;;;;;;;0.70;0.70;;;13.70;68.20;;;;;;4879733;29;20465;-75
2020/12/24 00:26:08;;;;;;;1.33;0.90;;;13.70;68.00;;;;;;4879957;29;20457;-74
2020/12/24 00:28:35;;;;;;;0.80;0.80;;;13.70;68.10;;;;;;4864610;29;20834;-75
2020/12/24 00:31:02;;;;;;;0.90;0.80;;;13.60;67.00;;;;;;4879690;29;20604;-75
2020/12/24 00:33:29;;;;;;;0.73;0.60;;;13.60;66.60;;;;;;4868018;29;20540;-75
2020/12/24 00:35:55;;;;;;;1.43;1.10;;;13.60;67.00;;;;;;4879643;29;20583;-75
2020/12/24 00:38:22;;;;;;;0.97;0.97;;;13.60;67.30;;;;;;4864137;29;20541;-75
2020/12/24 00:40:48;;;;;;;0.93;0.83;;;13.70;67.30;;;;;;4878357;29;20464;-76
2020/12/24 00:43:15;;;;;;;1.03;1.03;;;13.70;67.00;;;;;;4864397;29;20466;-75
2020/12/24 00:45:41;;;;;;;0.83;0.83;;;13.80;67.00;;;;;;4865114;29;20943;-75
2020/12/24 00:48:09;;;;;;;0.97;0.97;;;13.80;67.00;;;;;;4860970;29;20461;-74
2020/12/24 00:50:35;;;;;;;0.80;0.77;;;13.80;66.70;;;;;;4873858;29;20469;-74
2020/12/24 00:53:02;;;;;;;0.70;0.70;;;13.70;66.20;;;;;;4879027;29;20488;-75
2020/12/24 00:55:28;;;;;;;1.60;0.80;;;13.70;66.70;;;;;;4866535;29;20508;-75
2020/12/24 00:57:55;;;;;;;2.97;0.90;;;13.70;67.20;;;;;;4861000;29;20816;-74
2020/12/24 01:00:21;;;;;;;0.70;0.70;;;13.70;67.70;;;;;;4861811;29;20469;-74
2020/12/24 01:02:48;;;;;;;2.20;0.93;;;13.70;68.00;;;;;;4860738;29;20465;-75
2020/12/24 01:05:15;;;;;;;1.20;1.10;;;13.60;67.60;;;;;;4870725;29;20476;-75
2020/12/24 01:07:42;;;;;;;2.47;1.60;;;13.50;66.90;;;;;;4869309;29;20460;-75
2020/12/24 01:10:09;;;;;;;1.07;0.90;;;13.50;67.50;;;;;;4859950;29;20945;-75
2020/12/24 01:12:35;;;;;;;1.43;0.93;;;13.50;68.10;;;;;;4859922;29;20457;-75
2020/12/24 01:15:04;;;;;;;1.87;0.80;;;13.50;68.40;;;;;;4866161;29;20540;-75
2020/12/24 01:17:31;;;;;;;10.80;2.47;;;13.50;68.60;;;;;;4878853;29;20472;-74
2020/12/24 01:19:57;;;;;;;2.53;0.83;;;13.40;69.10;;;;;;4874015;29;20461;-75
2020/12/24 01:22:25;;;;;;;1.50;0.63;;;13.30;69.80;;;;;;4872427;29;20491;-75
2020/12/24 01:24:51;;;;;;;1.20;1.10;;;13.30;70.20;;;;;;4878155;29;20463;-75
2020/12/24 01:27:18;;;;;;;1.90;0.80;;;13.20;70.70;;;;;;4878901;29;20457;-75
2020/12/24 01:29:45;;;;;;;1.57;0.73;;;13.20;71.30;;;;;;4876850;29;20453;-74
2020/12/24 01:32:11;;;;;;;2.00;0.80;;;13.20;71.70;;;;;;4860326;29;20465;-74
2020/12/24 01:34:38;;;;;;;0.93;0.80;;;13.10;72.10;;;;;;4858974;29;20549;-75
2020/12/24 01:37:04;;;;;;;2.13;0.90;;;13.10;72.50;;;;;;4878535;29;20469;-74
2020/12/24 01:39:32;;;;;;;0.90;0.90;;;13.10;73.00;;;;;;4878618;29;20468;-75
2020/12/24 01:41:58;;;;;;;1.47;1.00;;;13.10;73.30;;;;;;4860467;29;20457;-75
2020/12/24 01:44:25;;;;;;;0.90;0.90;;;13.10;73.50;;;;;;4860175;29;20461;-75
2020/12/24 01:46:51;;;;;;;1.13;0.70;;;13.20;73.60;;;;;;4864726;29;20950;-75
2020/12/24 01:49:18;;;;;;;1.20;1.10;;;13.20;73.80;;;;;;4862741;29;20889;-74
2020/12/24 01:51:50;;;;;;;2.03;1.07;;;13.10;73.80;;;;;;4878083;29;20465;-74
2020/12/24 01:54:18;;;;;;;1.27;1.00;;;13.10;73.90;;;;;;4878383;29;20484;-74
2020/12/24 01:56:46;;;;;;;1.60;1.30;;;13.10;74.10;;;;;;4877735;29;20575;-75
2020/12/24 01:59:15;;;;;;;1.10;1.00;;;13.10;74.20;;;;;;4878642;29;20465;-75
2020/12/24 02:01:43;;;;;;;0.90;0.90;;;13.10;74.20;;;;;;4862856;29;20574;-75
2020/12/24 02:04:11;;;;;;;2.43;1.10;;;13.20;74.40;;;;;;4860086;29;20454;-76
2020/12/24 02:06:37;;;;;;;0.60;0.60;;;13.20;74.60;;;;;;4861150;29;20537;-76
2020/12/24 02:09:04;;;;;;;1.10;1.00;;;13.20;74.70;;;;;;4859756;29;20544;-75
2020/12/24 02:11:31;;;;;;;1.70;0.90;;;13.20;74.60;;;;;;4873989;29;20473;-76
2020/12/24 02:13:58;;;;;;;1.13;1.00;;;13.30;74.90;;;;;;4878519;29;20889;-75
2020/12/24 02:16:25;;;;;;;1.17;0.70;;;13.20;74.20;;;;;;4876746;29;20547;-75
2020/12/24 02:18:52;;;;;;;0.93;0.87;;;13.20;74.50;;;;;;4878032;29;20472;-74
2020/12/24 02:21:19;;;;;;;1.43;0.90;;;13.10;73.20;;;;;;4870048;29;20492;-74
2020/12/24 02:23:46;;;;;;;0.70;0.70;;;13.00;73.80;;;;;;4878196;29;20464;-74
2020/12/24 02:26:13;;;;;;;0.93;0.93;;;13.00;73.60;;;;;;4874062;29;20802;-74
2020/12/24 02:28:40;;;;;;;1.10;1.00;;;12.90;72.90;;;;;;4870551;29;20546;-75
2020/12/24 02:31:09;;;;;;;1.10;1.00;;;12.80;71.90;;;;;;4879073;29;20464;-75
2020/12/24 02:33:35;;;;;;;1.37;0.60;;;12.80;70.80;;;;;;4882008;29;20521;-74
2020/12/24 02:36:02;;;;;;;1.20;0.80;;;12.70;70.60;;;;;;4874458;29;20489;-75
2020/12/24 02:38:30;;;;;;;1.47;1.37;;;12.70;70.40;;;;;;4868187;29;20461;-75
2020/12/24 02:40:56;;;;;;;1.93;1.10;;;12.60;68.70;;;;;;4880160;29;20467;-75
2020/12/24 02:43:23;;;;;;;2.47;0.90;;;12.60;66.60;;;;;;4880782;29;20468;-74
2020/12/24 02:45:50;;;;;;;1.00;1.00;;;12.50;65.50;;;;;;4880927;29;20894;-74
2020/12/24 02:48:16;;;;;;;0.70;0.70;;;12.40;65.10;;;;;;4876792;29;20799;-74
2020/12/24 02:50:43;;;;;;;0.80;0.80;;;12.30;66.00;;;;;;4881542;29;20527;-74
2020/12/24 02:53:10;;;;;;;1.43;0.73;;;12.40;65.50;;;;;;4880694;29;20506;-74
2020/12/24 02:55:37;;;;;;;0.80;0.80;;;12.30;64.50;;;;;;4879939;29;20863;-75
2020/12/24 02:58:04;;;;;;;0.60;0.60;;;12.30;65.10;;;;;;4879964;29;20479;-75
2020/12/24 03:00:31;;;;;;;0.83;0.70;;;12.30;65.40;;;;;;4871404;29;20465;-75
2020/12/24 03:02:58;;;;;;;1.33;1.23;;;12.30;65.90;;;;;;4862828;29;20518;-74
2020/12/24 03:05:24;;;;;;;3.27;0.83;;;12.40;66.60;;;;;;4870365;29;20465;-74
2020/12/24 03:07:51;;;;;;;2.80;1.63;;;12.40;67.00;;;;;;4870986;29;20710;-74
2020/12/24 03:10:18;;;;;;;1.03;0.73;;;12.50;67.50;;;;;;4863587;29;20545;-74
2020/12/24 03:12:45;;;;;;;0.70;0.70;;;12.50;68.60;;;;;;4862760;29;20841;-74
2020/12/24 03:15:12;;;;;;;2.03;0.70;;;12.50;68.30;;;;;;4863111;29;20548;-74
2020/12/24 03:17:38;;;;;;;0.70;0.50;;;12.50;68.40;;;;;;4868343;29;20460;-74
2020/12/24 03:20:07;;;;;;;1.10;0.70;;;12.50;68.20;;;;;;4876302;29;20497;-74
2020/12/24 03:22:35;;;;;;;0.87;0.57;;;12.60;68.10;;;;;;4874524;29;20467;-74
2020/12/24 03:25:01;;;;;;;1.90;0.70;;;12.60;68.40;;;;;;4874936;29;20475;-74
2020/12/24 03:27:28;;;;;;;0.70;0.70;;;12.60;67.50;;;;;;4864189;29;20465;-74
2020/12/24 03:29:55;;;;;;;2.93;0.73;;;12.60;67.20;;;;;;4880990;29;20456;-75
2020/12/24 03:32:22;;;;;;;0.60;0.60;;;12.70;66.90;;;;;;4880065;29;20460;-75
2020/12/24 03:34:48;;;;;;;0.60;0.60;;;12.60;67.00;;;;;;4862232;29;20516;-75
2020/12/24 03:37:15;;;;;;;0.60;0.60;;;12.60;67.00;;;;;;4861618;29;20454;-75
2020/12/24 03:39:41;;;;;;;0.83;0.77;;;12.60;66.80;;;;;;4880407;29;20512;-75
2020/12/24 03:42:09;;;;;;;0.63;0.60;;;12.60;67.00;;;;;;4880596;29;20985;-74
2020/12/24 03:44:35;;;;;;;1.00;0.80;;;12.60;66.80;;;;;;4879073;29;21003;-74
2020/12/24 03:47:03;;;;;;;1.20;0.70;;;12.60;67.60;;;;;;4878906;29;20559;-75
2020/12/24 03:49:30;;;;;;;1.13;0.90;;;12.60;66.70;;;;;;4872071;29;20464;-74
2020/12/24 03:51:57;;;;;;;0.70;0.70;;;12.50;66.60;;;;;;4880519;29;20844;-75
2020/12/24 03:54:23;;;;;;;0.80;0.70;;;12.50;66.60;;;;;;4878067;29;20464;-74
2020/12/24 03:56:50;;;;;;;1.13;0.93;;;12.40;66.60;;;;;;4880577;29;20500;-75
2020/12/24 03:59:16;;;;;;;4.20;0.87;;;12.40;66.90;;;;;;4878531;29;20472;-75
2020/12/24 04:01:42;;;;;;;1.57;0.60;;;12.30;67.40;;;;;;4880327;29;20520;-75
2020/12/24 04:04:10;;;;;;;0.70;0.70;;;12.30;67.70;;;;;;4865443;29;20842;-75
2020/12/24 04:06:37;;;;;;;0.83;0.60;;;12.30;68.10;;;;;;4861867;29;20466;-74
2020/12/24 04:09:04;;;;;;;1.50;1.00;;;12.20;67.90;;;;;;4874648;29;20464;-75
2020/12/24 04:11:31;;;;;;;0.60;0.50;;;12.20;68.30;;;;;;4880012;29;20457;-74
2020/12/24 04:13:57;;;;;;;1.77;1.00;;;12.30;68.20;;;;;;4866041;29;20990;-74
2020/12/24 04:16:24;;;;;;;1.00;0.77;;;12.30;68.10;;;;;;4861321;29;20497;-74
2020/12/24 04:18:51;;;;;;;0.90;0.63;;;12.30;68.10;;;;;;4872055;29;20464;-74
2020/12/24 04:21:20;;;;;;;1.33;0.70;;;12.30;68.20;;;;;;4879978;29;20461;-75
2020/12/24 04:23:47;;;;;;;1.07;1.00;;;12.30;68.00;;;;;;4878929;29;20544;-75
2020/12/24 04:26:19;;;;;;;1.23;1.10;;;12.20;67.80;;;;;;4879273;29;20515;-75
2020/12/24 04:28:45;;;;;;;1.83;0.70;;;12.20;67.20;;;;;;4867658;29;20951;-74
2020/12/24 04:31:12;;;;;;;2.10;0.70;;;12.20;67.40;;;;;;4867817;29;20548;-74
2020/12/24 04:33:39;;;;;;;0.73;0.73;;;12.10;67.30;;;;;;4878997;29;20469;-75
2020/12/24 04:36:06;;;;;;;0.93;0.87;;;12.10;67.60;;;;;;4879535;29;20557;-75
2020/12/24 04:38:33;;;;;;;1.40;1.03;;;12.10;68.00;;;;;;4872319;29;20453;-75
2020/12/24 04:41:00;;;;;;;0.63;0.63;;;12.10;68.20;;;;;;4878048;29;21014;-75
2020/12/24 04:43:27;;;;;;;2.63;0.80;;;12.10;68.40;;;;;;4871340;29;20462;-75
2020/12/24 04:45:54;;;;;;;1.50;0.80;;;12.00;68.00;;;;;;4861168;29;20453;-75
2020/12/24 04:48:21;;;;;;;0.80;0.80;;;12.10;67.90;;;;;;4861097;29;20468;-75
2020/12/24 04:50:50;;;;;;;0.70;0.70;;;12.10;67.60;;;;;;4874709;29;20923;-75
2020/12/24 04:53:16;;;;;;;1.43;0.70;;;12.10;68.00;;;;;;4863821;29;20523;-75
2020/12/24 04:55:44;;;;;;;1.63;0.90;;;12.20;68.50;;;;;;4875551;29;20500;-75
2020/12/24 04:58:11;;;;;;;1.27;0.70;;;12.30;68.50;;;;;;4877720;29;20484;-76
2020/12/24 05:00:39;;;;;;;0.70;0.70;;;12.30;67.90;;;;;;4860851;29;20477;-76
2020/12/24 05:03:07;;;;;;;0.80;0.70;;;12.30;67.90;;;;;;4863696;29;20461;-76
2020/12/24 05:05:34;;;;;;;0.80;0.60;;;12.30;67.90;;;;;;4879073;29;20456;-76
2020/12/24 05:08:03;;;;;;;0.50;0.50;;;12.30;67.60;;;;;;4875243;29;20460;-75
2020/12/24 05:10:30;;;;;;;1.13;0.67;;;12.20;67.40;;;;;;4860447;29;20458;-75
2020/12/24 05:12:57;;;;;;;1.00;0.70;;;12.20;67.50;;;;;;4861710;29;20472;-74
2020/12/24 05:15:28;;;;;;;1.70;0.80;;;12.10;67.30;;;;;;4860492;29;20493;-74
2020/12/24 05:17:55;;;;;;;0.70;0.70;;;12.00;67.30;;;;;;4860488;29;20462;-74
2020/12/24 05:20:21;;;;;;;0.90;0.90;;;12.00;67.20;;;;;;4873797;29;20540;-74
2020/12/24 05:22:48;;;;;;;1.00;0.57;;;11.90;67.30;;;;;;4875403;29;20475;-74
2020/12/24 05:25:19;;;;;;;1.97;0.70;;;11.80;67.30;;;;;;4874955;29;20971;-75
2020/12/24 05:27:56;;;;;;;0.67;0.63;;;11.80;67.70;;;;;;4868360;29;20535;-74
2020/12/24 05:30:27;;;;;;;0.60;0.60;;;11.80;67.70;;;;;;4878606;29;20535;-74
2020/12/24 05:32:54;;;;;;;1.53;0.80;;;11.80;67.50;;;;;;4872540;29;20464;-74
2020/12/24 05:35:24;;;;;;;1.20;0.70;;;11.70;67.40;;;;;;4868548;29;20520;-75
2020/12/24 05:37:51;;;;;;;1.33;1.10;;;11.70;67.70;;;;;;4875015;29;20473;-74
2020/12/24 05:40:20;;;;;;;0.80;0.80;;;11.70;67.80;;;;;;4860037;29;20955;-75
2020/12/24 05:42:48;;;;;;;0.93;0.90;;;11.60;67.80;;;;;;4862405;29;20457;-74
2020/12/24 05:45:16;;;;;;;1.27;0.70;;;11.60;67.90;;;;;;4863871;29;20459;-75
2020/12/24 05:47:43;;;;;;;1.00;0.90;;;11.60;67.80;;;;;;4876801;29;20529;-75
2020/12/24 05:50:22;;;;;;;1.00;1.00;;;11.60;67.70;;;;;;4878787;29;20470;-74
2020/12/24 05:53:07;;;;;;;1.60;1.10;;;11.60;68.00;;;;;;4876811;29;20491;-75
2020/12/24 05:55:34;;;;;;;1.17;1.00;;;11.60;68.10;;;;;;4860070;29;20493;-74
2020/12/24 05:58:01;;;;;;;1.90;0.80;;;11.60;67.90;;;;;;4861168;29;20473;-74
2020/12/24 06:00:35;;;;;;;1.10;0.77;;;11.60;67.70;;;;;;4866205;29;20876;-74
2020/12/24 06:03:14;;;;;;;2.80;1.03;;;11.60;67.80;;;;;;4880515;29;20892;-74
2020/12/24 06:05:59;;;;;;;0.70;0.70;;;11.50;67.70;;;;;;4869063;29;20508;-73
2020/12/24 06:08:28;;;;;;;2.63;1.33;;;11.50;68.10;;;;;;4864594;29;20498;-74
2020/12/24 06:11:06;;;;;;;2.50;0.77;;;11.50;68.10;;;;;;4868327;29;20455;-74
2020/12/24 06:13:38;;;;;;;1.10;1.00;;;11.40;68.10;;;;;;4877720;29;20459;-74
2020/12/24 06:16:06;;;;;;;1.00;1.00;;;11.40;68.20;;;;;;4871924;29;21029;-74
2020/12/24 06:18:35;;;;;;;1.23;1.07;;;11.40;68.40;;;;;;4879145;29;20490;-73
2020/12/24 06:21:02;;;;;;;1.13;0.90;;;11.40;68.10;;;;;;4871675;29;20470;-73
2020/12/24 06:23:33;;;;;;;6.50;1.03;;;11.40;68.30;;;;;;4877351;29;20543;-74
2020/12/24 06:26:03;;;;;;;1.17;1.07;;;11.50;68.40;;;;;;4868990;29;20464;-72
2020/12/24 06:28:33;;;;;;;2.30;1.20;;;11.60;68.20;;;;;;4863889;29;20536;-73
2020/12/24 06:31:01;;;;;;;1.43;1.10;;;11.60;68.00;;;;;;4863300;29;21011;-73
2020/12/24 06:33:29;;;;;;;1.90;1.00;;;11.60;67.90;;;;;;4863293;29;20464;-73
2020/12/24 06:35:57;;;;;;;2.10;1.00;;;11.70;67.70;;;;;;4863176;29;20497;-74
2020/12/24 06:38:43;;;;;;;1.37;1.07;;;11.70;67.60;;;;;;4863380;29;20536;-73
2020/12/24 06:41:27;;;;;;;2.10;1.00;;;11.70;67.70;;;;;;4863189;29;20994;-73
2020/12/24 06:43:54;;;;;;;1.53;0.80;;;11.80;67.40;;;;;;4863353;29;20472;-73
2020/12/24 06:46:21;;;;;;;1.60;1.17;;;11.80;67.10;;;;;;4863129;29;20468;-73
2020/12/24 06:49:01;;;;;;;1.90;1.13;;;11.70;66.70;;;;;;4863208;29;20464;-73
2020/12/24 06:51:46;;;;;;;3.03;1.27;;;11.70;66.70;;;;;;4867646;29;21001;-73
2020/12/24 06:54:23;;;;;;;2.80;1.23;;;11.60;67.00;;;;;;4879657;29;21036;-73
2020/12/24 06:56:50;;;;;;;1.77;1.30;;;11.60;67.20;;;;;;4881581;29;20522;-73
2020/12/24 06:59:21;;;;;;;1.40;0.90;;;11.60;66.80;;;;;;4881581;29;20456;-73
2020/12/24 07:02:01;;;;;;;3.90;1.67;;;11.60;67.00;;;;;;4881308;29;20542;-73
2020/12/24 07:04:38;;;;;;;1.83;1.43;;;11.60;67.00;;;;;;4881467;29;20555;-73
2020/12/24 07:07:06;;;;;;;2.20;1.17;;;11.60;67.00;;;;;;4881408;29;20467;-73
2020/12/24 07:09:43;;;;;;;1.20;1.10;;;11.60;66.80;;;;;;4881242;29;20937;-72
2020/12/24 07:12:11;;;;;;;3.00;1.27;;;11.60;66.70;;;;;;4880298;29;20459;-73
2020/12/24 07:14:39;;;;;;;1.57;1.00;;;11.60;66.70;;;;;;4881307;29;20824;-73
2020/12/24 07:17:11;;;;;;;1.43;1.20;;;11.60;66.80;;;;;;4881210;29;20500;-73
2020/12/24 07:19:43;;;;;;;3.40;1.33;;;11.60;66.80;;;;;;4879504;29;20459;-73
2020/12/24 07:22:14;;;;;;;2.27;1.27;;;11.60;67.00;;;;;;4881104;29;21025;-73
2020/12/24 07:24:41;;;;;;;1.90;1.17;;;11.60;66.60;;;;;;4880962;29;20460;-73
2020/12/24 07:27:08;;;;;;;2.80;1.93;;;11.60;66.10;;;;;;4880877;29;20471;-72
2020/12/24 07:29:35;;;;;;;4.13;1.20;;;11.50;65.40;;;;;;4880906;29;20516;-72
2020/12/24 07:32:06;;;;;;;3.07;1.20;;;11.60;65.20;;;;;;4881054;29;20563;-73
2020/12/24 07:34:34;;;;;;;5.23;1.23;;;11.50;65.00;;;;;;4872222;29;20986;-73
2020/12/24 07:37:01;;;;;;;1.63;1.50;;;11.50;64.60;;;;;;4865055;29;21002;-73
2020/12/24 07:39:28;;;;;;;1.93;1.07;;;11.50;64.80;;;;;;4868257;29;20498;-73
2020/12/24 07:41:55;;;;;;;3.57;1.63;;;11.50;65.20;;;;;;4879122;29;20445;-73
2020/12/24 07:44:21;;;;;;;3.13;1.80;;;11.50;64.90;;;;;;4871893;29;20471;-73
2020/12/24 07:46:51;;;;;;;7.00;1.30;;;11.50;64.50;;;;;;4876706;29;20459;-73
2020/12/24 07:49:18;;;;;;;4.40;1.73;;;11.50;63.80;;;;;;4879694;29;20456;-73
2020/12/24 07:51:53;;;;;;;5.07;1.10;;;11.60;64.00;;;;;;4880200;29;20465;-73
2020/12/24 07:54:24;;;;;;;4.77;1.33;;;11.60;63.20;;;;;;4879621;29;20559;-73
2020/12/24 07:56:52;;;;;;;4.60;1.90;;;11.60;63.20;;;;;;4879051;29;20532;-74
2020/12/24 07:59:19;;;;;;;2.70;1.17;;;11.60;62.90;;;;;;4879349;29;20469;-73
2020/12/24 08:01:45;;;;;;;3.90;1.27;;;11.60;62.40;;;;;;4880289;29;20468;-73
2020/12/24 08:04:12;;;;;;;2.57;1.50;;;11.70;62.60;;;;;;4879508;29;20468;-73
2020/12/24 08:06:39;;;;;;;2.10;1.13;;;11.80;62.10;;;;;;4879822;29;20456;-73
2020/12/24 08:09:10;;;;;;;2.17;1.17;;;11.80;62.10;;;;;;4878192;29;20459;-74
2020/12/24 08:11:37;;;;;;;5.60;1.30;;;11.90;61.10;;;;;;4878870;29;20460;-73
2020/12/24 08:14:04;;;;;;;3.60;1.30;;;11.80;60.50;;;;;;4876346;29;20897;-73
2020/12/24 08:16:33;;;;;;;4.63;1.33;;;11.70;60.30;;;;;;4876357;29;20496;-73
2020/12/24 08:19:05;;;;;;;2.20;0.97;;;11.70;60.50;;;;;;4869619;29;20981;-73
2020/12/24 08:21:37;;;;;;;2.60;1.23;;;11.70;59.80;;;;;;4865735;29;20477;-73
2020/12/24 08:24:08;;;;;;;3.17;1.30;;;11.60;59.90;;;;;;4878158;29;20609;-73
2020/12/24 08:26:36;;;;;;;3.10;1.20;;;11.70;59.90;;;;;;4870190;29;20983;-73
2020/12/24 08:29:05;;;;;;;1.63;0.90;;;11.60;59.70;;;;;;4861750;29;20556;-73
2020/12/24 08:31:37;;;;;;;3.77;1.83;;;11.70;59.60;;;;;;4874148;29;21041;-73
2020/12/24 08:34:07;;;;;;;2.20;1.33;;;11.50;59.60;;;;;;4879355;29;20946;-73
2020/12/24 08:36:42;;;;;;;1.63;1.20;;;11.30;60.20;;;;;;4867677;29;20499;-73
2020/12/24 08:39:10;;;;;;;2.60;1.20;;;11.20;60.80;;;;;;4876787;29;20452;-73
2020/12/24 08:41:39;;;;;;;2.90;1.00;;;11.20;61.10;;;;;;4869723;29;20475;-73
2020/12/24 08:44:07;;;;;;;1.53;0.80;;;11.30;60.90;;;;;;4878535;29;20458;-74
2020/12/24 08:46:34;;;;;;;2.40;0.80;;;11.20;61.00;;;;;;4874821;29;20525;-73
2020/12/24 08:49:22;;;;;;;1.70;0.90;;;11.20;60.80;;;;;;4860155;29;20525;-73
2020/12/24 08:51:49;;;;;;;1.30;0.73;;;11.20;60.80;;;;;;4871559;29;20456;-73
2020/12/24 08:54:16;;;;;;;1.03;0.90;;;11.20;61.30;;;;;;4877980;29;20488;-74
2020/12/24 08:56:44;;;;;;;3.47;0.80;;;11.20;62.00;;;;;;4876613;29;21012;-76
2020/12/24 08:59:13;;;;;;;1.20;0.97;;;11.30;61.20;;;;;;4860275;29;20547;-75
2020/12/24 09:01:42;;;;;;;1.90;0.80;;;11.30;61.40;;;;;;4869615;29;20488;-74
2020/12/24 09:04:15;;;;;;;1.37;0.80;;;11.40;61.20;;;;;;4879199;29;20809;-76
2020/12/24 09:06:42;;;;;;;0.70;0.70;;;11.50;61.30;;;;;;4872396;29;20982;-75
2020/12/24 09:09:18;;;;;;;2.47;1.03;;;11.50;60.90;;;;;;4867106;29;20971;-75
2020/12/24 09:11:48;;;;;;;1.70;1.20;;;11.40;60.60;;;;;;4873639;29;20464;-75
2020/12/24 09:14:18;;;;;;;1.37;0.80;;;11.40;61.20;;;;;;4877004;29;20950;-76
2020/12/24 09:16:58;;;;;;;3.00;1.00;;;11.50;61.40;;;;;;4878226;29;20916;-75
2020/12/24 09:19:25;;;;;;;0.70;0.63;;;11.40;61.10;;;;;;4875351;29;20562;-75
2020/12/24 09:21:54;;;;;;;2.80;0.80;;;11.40;61.30;;;;;;4877602;29;20467;-75
2020/12/24 09:24:20;;;;;;;0.73;0.73;;;11.40;61.40;;;;;;4877841;29;20464;-75
2020/12/24 09:26:48;;;;;;;1.27;0.70;;;11.40;61.60;;;;;;4878640;29;21008;-77
2020/12/24 09:29:16;;;;;;;1.77;0.90;;;11.50;61.10;;;;;;4877173;29;20460;-76
2020/12/24 09:31:52;;;;;;;0.80;0.80;;;11.40;60.80;;;;;;4871609;29;20458;-77
2020/12/24 09:34:19;;;;;;;1.00;0.60;;;11.40;60.90;;;;;;4873330;29;20812;-76
2020/12/24 09:36:47;;;;;;;3.70;0.90;;;11.50;60.60;;;;;;4873316;29;20495;-76
2020/12/24 09:39:14;;;;;;;1.53;1.27;;;11.40;60.60;;;;;;4871017;29;20522;-77
2020/12/24 09:41:42;;;;;;;3.77;1.63;;;11.40;60.90;;;;;;4873010;29;20529;-76
2020/12/24 09:44:08;;;;;;;2.00;1.40;;;11.60;61.20;;;;;;4870911;29;20464;-77
2020/12/24 09:46:36;;;;;;;1.20;1.10;;;11.70;60.70;;;;;;4877844;29;20465;-77
2020/12/24 09:49:02;;;;;;;1.10;0.90;;;11.60;60.60;;;;;;4871297;29;20884;-78
2020/12/24 09:51:31;;;;;;;1.63;1.13;;;11.60;60.30;;;;;;4877492;29;20468;-76
2020/12/24 09:53:58;;;;;;;1.37;0.70;;;11.60;60.60;;;;;;4862321;29;20485;-76
2020/12/24 09:56:24;;;;;;;1.27;0.70;;;11.60;60.30;;;;;;4876540;29;20553;-76
2020/12/24 09:58:51;;;;;;;1.63;0.80;;;11.60;60.60;;;;;;4875284;29;20472;-76
2020/12/24 10:01:17;;;;;;;0.73;0.63;;;11.60;60.70;;;;;;4864977;29;20475;-75
2020/12/24 10:03:46;;;;;;;5.73;1.33;;;11.70;60.50;;;;;;4876503;29;20458;-75
2020/12/24 10:06:12;;;;;;;8.00;0.90;;;11.80;59.90;;;;;;4862698;29;20552;-74
2020/12/24 10:08:39;;;;;;;1.33;0.80;;;11.80;60.00;;;;;;4868724;29;20465;-75
2020/12/24 10:11:10;;;;;;;0.93;0.70;;;11.80;59.90;;;;;;4876280;29;20465;-75
2020/12/24 10:13:37;;;;;;;1.20;1.00;;;11.90;60.10;;;;;;4878280;29;20857;-75
2020/12/24 10:16:03;;;;;;;1.00;0.90;;;11.90;59.80;;;;;;4864261;29;20508;-74
2020/12/24 10:18:30;;;;;;;1.80;0.97;;;11.90;59.60;;;;;;4865773;29;20461;-75
2020/12/24 10:20:57;;;;;;;1.93;1.40;;;11.90;59.20;;;;;;4859803;29;20453;-75
2020/12/24 10:23:24;;;;;;;2.33;0.80;;;11.90;59.70;;;;;;4875364;29;20486;-75
2020/12/24 10:25:50;;;;;;;0.80;0.80;;;11.90;59.80;;;;;;4870797;29;20987;-75
2020/12/24 10:28:17;;;;;;;0.90;0.80;;;12.00;59.80;;;;;;4860785;29;20466;-75
2020/12/24 10:30:44;;;;;;;0.67;0.67;;;12.00;59.80;;;;;;4867052;29;20461;-75
2020/12/24 10:33:11;;;;;;;1.43;0.90;;;12.20;59.50;;;;;;4878158;29;20484;-75
2020/12/24 10:35:39;;;;;;;2.20;0.90;;;12.40;59.30;;;;;;4877939;29;20460;-75
2020/12/24 10:38:07;;;;;;;1.13;1.00;;;12.50;59.20;;;;;;4877654;29;21022;-75
2020/12/24 10:40:35;;;;;;;2.20;1.07;;;12.60;58.70;;;;;;4875956;29;20453;-75
2020/12/24 10:43:02;;;;;;;1.27;0.90;;;12.70;58.60;;;;;;4875776;29;20461;-75
2020/12/24 10:45:28;;;;;;;1.00;0.70;;;12.80;58.30;;;;;;4871439;29;20453;-74
2020/12/24 10:47:55;;;;;;;1.90;0.63;;;12.70;57.90;;;;;;4880843;29;21020;-74
2020/12/24 10:50:22;;;;;;;1.20;1.10;;;12.60;58.00;;;;;;4881472;29;20465;-75
2020/12/24 10:52:49;;;;;;;0.73;0.73;;;12.50;58.00;;;;;;4881156;29;20551;-74
2020/12/24 10:55:16;;;;;;;1.30;1.20;;;12.50;58.20;;;;;;4878044;29;20461;-75
2020/12/24 10:57:42;;;;;;;0.90;0.90;;;12.40;58.40;;;;;;4862728;29;21064;-75
2020/12/24 11:00:10;;;;;;;1.53;0.70;;;12.30;58.20;;;;;;4869975;29;20457;-75
2020/12/24 11:02:36;;;;;;;1.10;0.90;;;12.30;58.50;;;;;;4880808;29;20460;-74
2020/12/24 11:05:04;;;;;;;1.63;0.90;;;12.30;59.20;;;;;;4869945;29;20457;-74
2020/12/24 11:07:30;;;;;;;0.80;0.80;;;12.30;58.40;;;;;;4881249;29;20465;-74
2020/12/24 11:09:57;;;;;;;1.83;0.80;;;12.40;58.50;;;;;;4876789;29;20959;-74
2020/12/24 11:12:24;;;;;;;0.70;0.70;;;12.60;58.20;;;;;;4868337;29;20456;-74
2020/12/24 11:14:51;;;;;;;1.07;0.97;;;12.80;57.90;;;;;;4879482;29;20512;-74
2020/12/24 11:17:17;;;;;;;1.03;0.93;;;13.30;57.20;;;;;;4879287;29;20492;-74
2020/12/24 11:19:44;;;;;;;0.90;0.90;;;13.70;56.30;;;;;;4879451;29;20535;-74
2020/12/24 11:22:10;;;;;;;0.87;0.87;;;13.70;55.50;;;;;;4876342;29;20494;-74
2020/12/24 11:24:37;;;;;;;1.83;0.80;;;13.70;55.20;;;;;;4878736;29;20465;-75
2020/12/24 11:27:03;;;;;;;1.83;1.23;;;13.60;55.00;;;;;;4879315;29;20464;-75
2020/12/24 11:29:31;;;;;;;0.90;0.90;;;13.40;55.80;;;;;;4870216;29;20464;-75
2020/12/24 11:31:58;;;;;;;1.17;1.07;;;14.80;55.30;;;;;;4869815;29;20460;-75
2020/12/24 11:34:26;;;;;;;1.20;0.90;;;16.40;52.30;;;;;;4879478;29;20978;-74
2020/12/24 11:36:52;;;;;;;0.80;0.73;;;18.20;49.10;;;;;;4879619;29;20496;-75
2020/12/24 11:39:19;;;;;;;0.80;0.80;;;19.90;45.90;;;;;;4867095;29;20461;-75
2020/12/24 11:41:45;;;;;;;0.80;0.80;;;20.90;42.20;;;;;;4876678;29;20457;-75
2020/12/24 11:44:12;;;;;;;1.00;0.70;;;19.80;42.00;;;;;;4880442;29;20457;-74
2020/12/24 11:46:40;;;;;;;0.80;0.80;;;17.80;44.20;;;;;;4864976;29;20545;-75
2020/12/24 11:49:06;;;;;;;0.80;0.80;;;16.10;47.60;;;;;;4862360;29;20948;-75
2020/12/24 11:51:33;;;;;;;0.90;0.90;;;15.10;50.10;;;;;;4875692;29;20461;-74
2020/12/24 11:53:59;;;;;;;0.90;0.77;;;14.40;51.90;;;;;;4876334;29;20571;-75
2020/12/24 11:56:26;;;;;;;1.27;0.70;;;13.80;52.80;;;;;;4879928;29;20508;-74
2020/12/24 11:58:53;;;;;;;0.73;0.73;;;13.30;54.70;;;;;;4870195;29;20869;-75
2020/12/24 12:01:22;;;;;;;1.57;1.00;;;13.10;55.30;;;;;;4861855;29;20492;-74
2020/12/24 12:03:51;;;;;;;2.40;0.70;;;13.10;55.90;;;;;;4861519;29;20493;-75
2020/12/24 12:06:18;;;;;;;0.77;0.77;;;13.00;55.90;;;;;;4861467;29;20493;-75
2020/12/24 12:08:45;;;;;;;0.60;0.60;;;13.00;55.80;;;;;;4861433;29;20466;-74
2020/12/24 12:11:12;;;;;;;1.10;0.63;;;12.90;55.90;;;;;;4861488;29;20815;-75
2020/12/24 12:13:39;;;;;;;0.90;0.80;;;12.90;56.50;;;;;;4860008;29;20469;-74
2020/12/24 12:16:07;;;;;;;0.93;0.70;;;13.20;56.40;;;;;;4861534;29;20500;-74
2020/12/24 12:18:34;;;;;;;0.90;0.90;;;13.60;55.70;;;;;;4861385;29;20497;-74
2020/12/24 12:21:02;;;;;;;0.60;0.60;;;13.60;55.00;;;;;;4862606;29;20464;-74
2020/12/24 12:23:28;;;;;;;1.53;0.87;;;13.60;55.00;;;;;;4880039;29;20452;-74
2020/12/24 12:25:55;;;;;;;0.73;0.60;;;13.60;54.90;;;;;;4879956;29;20465;-74
2020/12/24 12:28:21;;;;;;;0.80;0.70;;;13.40;54.90;;;;;;4879929;29;20456;-74
2020/12/24 12:30:48;;;;;;;1.70;1.00;;;13.10;55.30;;;;;;4879878;29;20468;-74
2020/12/24 12:33:15;;;;;;;0.90;0.80;;;13.10;56.00;;;;;;4879841;29;20464;-75
2020/12/24 12:35:41;;;;;;;0.63;0.63;;;13.10;56.10;;;;;;4879721;29;20583;-74
2020/12/24 12:38:09;;;;;;;2.07;1.00;;;13.10;56.00;;;;;;4879772;29;20460;-74
2020/12/24 12:40:35;;;;;;;0.93;0.93;;;13.20;56.20;;;;;;4877898;29;20456;-74
2020/12/24 12:43:02;;;;;;;0.77;0.77;;;13.20;56.00;;;;;;4875952;29;20464;-74
2020/12/24 12:45:28;;;;;;;0.67;0.67;;;13.20;55.70;;;;;;4864969;29;20966;-74
2020/12/24 12:47:55;;;;;;;1.30;1.20;;;13.10;55.70;;;;;;4860937;29;20505;-74
2020/12/24 12:50:21;;;;;;;1.20;1.10;;;13.00;55.80;;;;;;4869445;29;20980;-74
2020/12/24 12:52:48;;;;;;;0.73;0.73;;;13.00;56.20;;;;;;4864797;29;20497;-75